Time;durP1;ratioP1;P1;durP2;ratioP2;P2;SDS_P1;SDS_P2;PMS_P1;PMS_P2;Temp;Humidity;BMP_temperature;BMP_pressure;BME280_temperature;BME280_humidity;BME280_pressure;Samples;Min_cycle;Max_cycle;Signal;HPM_P1;HPM_P2
2021/12/04 00:02:05;;;;;;;6.03;3.42;;;7.30;59.30;;;;;;6177716;28;20083;-77
2021/12/04 00:05:07;;;;;;;6.28;3.33;;;7.30;59.50;;;;;;6163780;28;20030;-76
2021/12/04 00:08:08;;;;;;;8.43;2.78;;;7.30;59.70;;;;;;6177073;28;20033;-76
2021/12/04 00:11:10;;;;;;;8.00;3.60;;;7.30;59.70;;;;;;6164942;28;20031;-76
2021/12/04 00:14:11;;;;;;;8.13;3.67;;;7.20;59.80;;;;;;6165849;28;20042;-77
2021/12/04 00:17:12;;;;;;;8.52;3.97;;;7.20;60.10;;;;;;6178309;28;20487;-77
2021/12/04 00:20:15;;;;;;;6.05;3.45;;;7.20;60.40;;;;;;6182706;28;20434;-76
2021/12/04 00:23:16;;;;;;;7.38;3.95;;;7.10;60.70;;;;;;6180192;28;20134;-77
2021/12/04 00:26:17;;;;;;;6.70;3.00;;;7.00;61.00;;;;;;6182972;28;20096;-77
2021/12/04 00:29:19;;;;;;;7.22;3.38;;;7.00;61.40;;;;;;6145693;28;20104;-76
2021/12/04 00:32:33;;;;;;;11.02;3.83;;;6.90;61.80;;;;;;6167502;28;20106;-77
2021/12/04 00:35:43;;;;;;;4.72;3.15;;;6.90;62.10;;;;;;6182658;28;20034;-77
2021/12/04 00:52:02;;;;;;;8.60;3.88;;;6.90;63.60;;;;;;6176839;28;20436;-76
2021/12/04 00:55:05;;;;;;;9.02;3.58;;;6.80;63.60;;;;;;6163072;28;20219;-78
2021/12/04 00:58:06;;;;;;;8.73;3.50;;;6.80;63.70;;;;;;6181131;28;20637;-76
2021/12/04 01:01:07;;;;;;;5.00;3.15;;;6.90;63.80;;;;;;6168162;28;20045;-77
2021/12/04 01:04:13;;;;;;;7.07;3.80;;;6.80;63.90;;;;;;6176105;28;20074;-77
2021/12/04 01:07:14;;;;;;;8.13;3.25;;;6.80;64.00;;;;;;6180354;28;20518;-77
2021/12/04 01:10:16;;;;;;;7.07;3.42;;;6.70;64.00;;;;;;6149266;28;20035;-77
2021/12/04 01:13:16;;;;;;;13.00;3.88;;;6.70;64.30;;;;;;6165022;28;20052;-79
2021/12/04 01:16:17;;;;;;;5.75;3.13;;;6.80;64.40;;;;;;6164778;28;20038;-77
2021/12/04 01:19:19;;;;;;;9.65;4.05;;;6.80;64.50;;;;;;6113311;28;20113;-77
2021/12/04 01:22:22;;;;;;;6.60;3.80;;;6.80;64.50;;;;;;6127295;28;20039;-77
2021/12/04 01:25:23;;;;;;;5.13;3.17;;;6.70;64.60;;;;;;6143126;28;20081;-77
2021/12/04 01:28:24;;;;;;;4.97;3.05;;;6.60;64.70;;;;;;6123222;28;21563;-77
2021/12/04 01:31:26;;;;;;;9.25;3.58;;;6.60;65.00;;;;;;6113907;28;20593;-76
2021/12/04 01:34:27;;;;;;;6.50;2.88;;;6.60;65.80;;;;;;6130207;28;20460;-76
2021/12/04 01:37:28;;;;;;;5.45;2.80;;;6.60;65.20;;;;;;6116047;28;20051;-77
2021/12/04 01:40:29;;;;;;;8.15;3.40;;;6.60;65.50;;;;;;6130996;28;20372;-77
2021/12/04 01:43:30;;;;;;;8.85;4.32;;;6.50;65.50;;;;;;6114366;28;20079;-77
2021/12/04 01:46:33;;;;;;;7.70;3.53;;;6.60;65.60;;;;;;6099924;28;20050;-77
2021/12/04 01:49:34;;;;;;;6.18;4.00;;;6.60;65.70;;;;;;6126222;28;20431;-77
2021/12/04 01:52:35;;;;;;;5.55;3.45;;;6.60;65.80;;;;;;6121597;28;20070;-77
2021/12/04 01:55:37;;;;;;;15.18;3.20;;;6.60;66.00;;;;;;6136787;28;20039;-77
2021/12/04 01:58:41;;;;;;;4.75;2.95;;;6.50;66.00;;;;;;6156940;28;20030;-78
2021/12/04 02:01:42;;;;;;;7.38;4.22;;;6.50;66.20;;;;;;6154501;28;20535;-77
2021/12/04 02:04:43;;;;;;;8.05;3.50;;;6.50;66.20;;;;;;6167536;28;20106;-77
2021/12/04 02:07:46;;;;;;;6.18;2.92;;;6.50;66.40;;;;;;6170182;28;20120;-77
2021/12/04 02:10:50;;;;;;;4.75;2.78;;;6.60;66.50;;;;;;6171447;28;20598;-78
2021/12/04 02:13:51;;;;;;;11.63;3.60;;;6.60;66.50;;;;;;6152306;28;20047;-78
2021/12/04 02:16:52;;;;;;;6.00;2.83;;;6.60;66.50;;;;;;6152888;28;20074;-78
2021/12/04 02:19:53;;;;;;;6.00;2.83;;;6.60;66.50;;;;;;6139107;28;20047;-77
2021/12/04 02:22:56;;;;;;;11.57;3.60;;;6.60;66.40;;;;;;6142226;28;20361;-78
2021/12/04 02:25:57;;;;;;;7.53;4.53;;;6.60;66.40;;;;;;6125917;28;20042;-78
2021/12/04 02:28:58;;;;;;;9.88;4.15;;;6.70;66.50;;;;;;6119246;28;20372;-77
2021/12/04 02:32:02;;;;;;;5.55;3.22;;;6.70;66.40;;;;;;6111836;28;20471;-76
2021/12/04 02:35:04;;;;;;;8.52;4.10;;;6.70;66.40;;;;;;6140858;28;20034;-76
2021/12/04 02:38:05;;;;;;;10.70;4.57;;;6.70;66.40;;;;;;6107727;28;20419;-77
2021/12/04 02:41:09;;;;;;;6.97;3.50;;;6.60;66.70;;;;;;6110026;28;20039;-79
2021/12/04 02:44:10;;;;;;;6.10;3.42;;;6.60;66.90;;;;;;6124745;28;20999;-78
2021/12/04 02:47:11;;;;;;;6.65;3.42;;;6.70;66.90;;;;;;6128601;28;20053;-77
2021/12/04 02:50:13;;;;;;;6.43;3.42;;;6.70;66.80;;;;;;6123995;28;20047;-78
2021/12/04 02:53:15;;;;;;;4.97;2.92;;;6.70;66.60;;;;;;6121795;28;20492;-77
2021/12/04 02:56:16;;;;;;;6.70;3.50;;;6.70;66.70;;;;;;6131178;28;20058;-77
2021/12/04 02:59:17;;;;;;;5.35;2.38;;;6.70;66.70;;;;;;6134001;28;20073;-77
2021/12/04 03:02:23;;;;;;;6.80;3.15;;;6.70;66.80;;;;;;6150381;28;20031;-77
2021/12/04 03:05:27;;;;;;;5.10;3.03;;;6.70;66.80;;;;;;6154145;28;20039;-77
2021/12/04 03:08:28;;;;;;;7.32;2.85;;;6.70;66.90;;;;;;6153686;28;20039;-77
2021/12/04 03:11:29;;;;;;;4.82;2.85;;;6.80;67.00;;;;;;6153309;28;20045;-77
2021/12/04 03:14:29;;;;;;;5.43;3.70;;;6.80;67.20;;;;;;6163276;28;20372;-79
2021/12/04 03:17:31;;;;;;;5.65;3.45;;;6.80;67.10;;;;;;6154784;28;20134;-78
2021/12/04 03:20:32;;;;;;;8.00;3.47;;;6.90;67.10;;;;;;6153079;28;20125;-77
2021/12/04 03:23:41;;;;;;;6.30;3.17;;;6.90;67.00;;;;;;6154118;28;20171;-77
2021/12/04 03:26:42;;;;;;;6.78;3.83;;;6.90;67.10;;;;;;6157071;28;20031;-77
2021/12/04 03:29:56;;;;;;;8.43;4.32;;;6.90;67.00;;;;;;6172577;28;20031;-77
2021/12/04 03:42:57;;;;;;;10.95;4.60;;;7.00;67.30;;;;;;6152767;28;20042;-77
2021/12/04 03:46:01;;;;;;;4.85;3.35;;;7.00;67.30;;;;;;6139549;28;20097;-78
2021/12/04 03:49:02;;;;;;;5.18;3.40;;;7.00;67.30;;;;;;6154770;28;20045;-78
2021/12/04 03:52:05;;;;;;;7.32;4.28;;;7.00;67.40;;;;;;6157034;28;20459;-78
2021/12/04 03:55:07;;;;;;;9.63;4.40;;;7.00;67.30;;;;;;6168167;28;20042;-77
2021/12/04 03:58:08;;;;;;;7.32;3.55;;;7.00;67.50;;;;;;6145880;28;20035;-78
2021/12/04 04:01:10;;;;;;;9.32;4.05;;;7.00;67.50;;;;;;6146368;28;20038;-78
2021/12/04 04:04:11;;;;;;;9.60;4.13;;;7.00;67.50;;;;;;6162951;28;20540;-77
2021/12/04 04:07:12;;;;;;;10.25;4.32;;;7.10;67.60;;;;;;6160788;28;20038;-77
2021/12/04 04:10:14;;;;;;;9.98;4.53;;;7.10;67.60;;;;;;6146328;28;20042;-77
2021/12/04 04:13:15;;;;;;;8.77;4.20;;;7.10;67.60;;;;;;6132774;28;20050;-79
2021/12/04 04:16:16;;;;;;;8.32;3.90;;;7.10;67.80;;;;;;6128577;28;20038;-76
2021/12/04 04:19:17;;;;;;;7.20;4.07;;;7.10;67.70;;;;;;6130570;28;20234;-79
2021/12/04 04:22:18;;;;;;;6.45;4.25;;;7.20;67.60;;;;;;6144482;28;20039;-77
2021/12/04 04:25:19;;;;;;;8.98;4.03;;;7.20;67.70;;;;;;6177080;28;20054;-78
2021/12/04 04:28:20;;;;;;;6.20;3.50;;;7.20;67.60;;;;;;6164958;28;20039;-77
2021/12/04 04:31:21;;;;;;;6.85;4.18;;;7.20;67.70;;;;;;6184161;28;20118;-77
2021/12/04 04:37:44;;;;;;;8.65;4.25;;;7.30;67.70;;;;;;6181951;28;20125;-77
2021/12/04 05:11:06;;;;;;;12.77;5.10;;;7.30;67.90;;;;;;6093543;29;20092;-78
2021/12/04 05:14:07;;;;;;;9.20;5.45;;;7.30;68.00;;;;;;6108148;29;20071;-78
2021/12/04 05:17:13;;;;;;;7.35;3.92;;;7.40;67.90;;;;;;6077242;29;20059;-78
2021/12/04 05:20:26;;;;;;;8.00;4.32;;;7.30;67.90;;;;;;6085485;29;20393;-78
2021/12/04 05:23:27;;;;;;;12.80;5.07;;;7.40;68.10;;;;;;6068609;29;20044;-78
2021/12/04 05:26:29;;;;;;;7.38;4.53;;;7.40;68.10;;;;;;6054669;29;20406;-78
2021/12/04 05:29:31;;;;;;;10.02;4.97;;;7.40;68.00;;;;;;6070400;29;20396;-78
2021/12/04 05:32:32;;;;;;;11.38;5.28;;;7.40;68.00;;;;;;6069911;29;20063;-78
2021/12/04 05:35:34;;;;;;;9.35;5.32;;;7.40;68.10;;;;;;6046172;29;20374;-78
2021/12/04 05:38:37;;;;;;;8.27;4.55;;;7.40;68.00;;;;;;6150697;28;20371;-78
2021/12/04 05:41:39;;;;;;;10.75;5.18;;;7.40;68.10;;;;;;6143101;28;20039;-78
2021/12/04 05:44:42;;;;;;;12.77;5.30;;;7.40;68.10;;;;;;6168659;28;20050;-78
2021/12/04 05:47:53;;;;;;;8.05;4.65;;;7.40;68.20;;;;;;6169649;28;20125;-78
2021/12/04 05:57:01;;;;;;;10.10;5.38;;;7.40;68.30;;;;;;6175316;28;20039;-78
2021/12/04 06:00:07;;;;;;;7.93;5.10;;;7.40;68.20;;;;;;6149432;28;20031;-78
2021/12/04 06:03:08;;;;;;;10.68;5.47;;;7.30;68.10;;;;;;6160159;28;20034;-73
2021/12/04 06:06:09;;;;;;;12.20;6.65;;;7.40;68.20;;;;;;6164819;28;20110;-72
2021/12/04 06:09:10;;;;;;;10.57;5.22;;;7.40;68.30;;;;;;6163646;28;20067;-72
2021/12/04 06:12:11;;;;;;;8.68;5.05;;;7.50;68.40;;;;;;6164083;28;20047;-71
2021/12/04 06:15:12;;;;;;;10.65;6.10;;;7.50;68.30;;;;;;6167823;28;20069;-71
2021/12/04 06:18:15;;;;;;;10.63;6.57;;;7.50;68.40;;;;;;6164306;28;20035;-71
2021/12/04 06:24:36;;;;;;;14.98;6.70;;;7.50;68.10;;;;;;6180931;28;20135;-72
2021/12/04 06:27:37;;;;;;;15.07;6.47;;;7.50;68.20;;;;;;6157893;28;20038;-71
2021/12/04 06:30:41;;;;;;;10.80;6.00;;;7.50;68.20;;;;;;6184686;28;20047;-71
2021/12/04 06:33:42;;;;;;;10.60;6.10;;;7.60;68.20;;;;;;6162224;28;20038;-71
2021/12/04 06:36:43;;;;;;;10.88;5.22;;;7.60;68.00;;;;;;6163399;28;20049;-71
2021/12/04 06:39:44;;;;;;;10.75;5.88;;;7.50;68.00;;;;;;6179004;28;20117;-71
2021/12/04 06:42:46;;;;;;;12.30;6.55;;;7.50;68.10;;;;;;6180568;28;20030;-71
2021/12/04 06:45:57;;;;;;;12.52;6.63;;;7.50;68.30;;;;;;6164098;28;20357;-71
2021/12/04 06:52:05;;;;;;;11.43;6.82;;;7.60;68.40;;;;;;6181462;28;20046;-71
2021/12/04 06:55:06;;;;;;;8.77;5.43;;;7.60;68.20;;;;;;6174021;28;20049;-71
2021/12/04 06:58:08;;;;;;;9.05;5.57;;;7.60;68.20;;;;;;6137202;28;20051;-70
2021/12/04 07:01:12;;;;;;;11.77;7.10;;;7.70;68.20;;;;;;6167996;28;20045;-78
2021/12/04 07:04:16;;;;;;;12.98;5.75;;;7.70;68.00;;;;;;6164397;28;20049;-80
2021/12/04 07:07:19;;;;;;;8.13;5.28;;;7.70;67.90;;;;;;6161772;28;20121;-78
2021/12/04 07:10:20;;;;;;;13.02;6.43;;;7.60;67.90;;;;;;6153496;28;20050;-78
2021/12/04 07:13:21;;;;;;;13.13;6.40;;;7.60;67.70;;;;;;6159339;28;20042;-79
2021/12/04 07:16:24;;;;;;;14.30;6.43;;;7.60;68.00;;;;;;6163925;28;20042;-78
2021/12/04 07:19:26;;;;;;;10.27;5.47;;;7.60;68.00;;;;;;6139037;28;20347;-78
2021/12/04 07:22:27;;;;;;;11.15;6.20;;;7.60;68.00;;;;;;6143606;28;20042;-74
2021/12/04 07:25:29;;;;;;;12.73;5.60;;;7.60;68.10;;;;;;6160083;28;20040;-74
2021/12/04 07:28:30;;;;;;;9.02;4.82;;;7.60;68.10;;;;;;6129598;28;20498;-74
2021/12/04 07:31:33;;;;;;;9.52;5.35;;;7.60;68.00;;;;;;6159285;28;20031;-73
2021/12/04 07:34:34;;;;;;;10.25;5.50;;;7.60;68.00;;;;;;6141917;28;20070;-74
2021/12/04 07:37:35;;;;;;;11.48;5.40;;;7.60;68.00;;;;;;6143287;28;20043;-75
2021/12/04 07:41:03;;;;;;;13.82;6.70;;;7.60;68.10;;;;;;6146405;28;20388;-75
2021/12/04 07:44:08;;;;;;;12.40;6.05;;;7.70;68.20;;;;;;6158769;28;20047;-75
2021/12/04 07:47:11;;;;;;;12.40;5.85;;;7.70;68.20;;;;;;6159301;28;20035;-76
2021/12/04 07:50:12;;;;;;;11.50;5.18;;;7.70;68.10;;;;;;6157800;28;20413;-76
2021/12/04 07:53:13;;;;;;;12.73;6.80;;;7.60;68.20;;;;;;6143295;28;20044;-76
2021/12/04 07:56:16;;;;;;;10.77;6.10;;;7.60;68.20;;;;;;6152011;28;20039;-70
2021/12/04 07:59:17;;;;;;;11.25;6.32;;;7.60;68.30;;;;;;6161348;28;20050;-76
2021/12/04 08:02:18;;;;;;;12.13;5.60;;;7.60;68.50;;;;;;6143809;28;22761;-77
2021/12/04 08:05:19;;;;;;;10.23;4.75;;;7.70;68.60;;;;;;6137698;28;20043;-76
2021/12/04 08:08:20;;;;;;;10.65;5.93;;;7.70;68.60;;;;;;6135485;28;20126;-76
2021/12/04 08:11:22;;;;;;;13.80;6.32;;;7.70;68.50;;;;;;6160565;28;20427;-76
2021/12/04 08:14:23;;;;;;;9.35;5.18;;;7.80;68.60;;;;;;6157714;28;20070;-75
2021/12/04 08:17:25;;;;;;;9.63;5.55;;;7.90;68.50;;;;;;6132601;28;20088;-75
2021/12/04 08:20:26;;;;;;;13.57;5.75;;;7.90;68.50;;;;;;6136598;28;20054;-76
2021/12/04 08:23:27;;;;;;;20.13;6.38;;;7.90;68.30;;;;;;6149226;28;20039;-73
2021/12/04 08:26:29;;;;;;;11.82;5.47;;;8.00;68.20;;;;;;6129525;28;20046;-75
2021/12/04 08:29:30;;;;;;;10.15;6.10;;;8.00;68.30;;;;;;6143487;28;20038;-74
2021/12/04 08:32:31;;;;;;;9.00;5.07;;;8.00;68.30;;;;;;6147085;28;20166;-74
2021/12/04 08:35:38;;;;;;;12.52;6.07;;;8.00;68.10;;;;;;6147097;28;20499;-75
2021/12/04 08:38:45;;;;;;;11.77;6.40;;;8.00;68.10;;;;;;6149334;28;20061;-76
2021/12/04 08:41:48;;;;;;;14.00;6.90;;;8.00;68.20;;;;;;6167018;28;20113;-74
2021/12/04 08:44:49;;;;;;;10.88;5.80;;;8.00;68.20;;;;;;6133992;28;20479;-77
2021/12/04 08:47:50;;;;;;;13.45;6.53;;;8.10;68.40;;;;;;6167204;28;20042;-78
2021/12/04 08:50:51;;;;;;;10.98;6.00;;;8.10;68.40;;;;;;6144309;28;20461;-78
2021/12/04 08:53:53;;;;;;;12.77;5.97;;;8.10;68.30;;;;;;6159552;28;20039;-77
2021/12/04 08:56:54;;;;;;;10.55;6.03;;;8.10;68.30;;;;;;6148797;28;20463;-78
2021/12/04 08:59:55;;;;;;;11.55;6.20;;;8.20;68.20;;;;;;6158098;28;20459;-77
2021/12/04 09:02:57;;;;;;;11.68;5.72;;;8.10;68.10;;;;;;6147317;28;20125;-77
2021/12/04 09:06:06;;;;;;;12.07;6.15;;;8.10;68.30;;;;;;6142837;28;20460;-78
2021/12/04 09:09:09;;;;;;;11.82;5.80;;;8.10;68.30;;;;;;6177471;28;20042;-76
2021/12/04 09:12:14;;;;;;;10.43;5.97;;;8.20;68.50;;;;;;6184461;28;20141;-77
2021/12/04 09:15:20;;;;;;;12.63;6.15;;;8.20;68.50;;;;;;6153868;28;20100;-76
2021/12/04 09:18:22;;;;;;;15.20;7.22;;;8.20;68.30;;;;;;6148397;28;20042;-77
2021/12/04 09:21:27;;;;;;;13.80;6.82;;;8.20;68.60;;;;;;6178761;28;20042;-77
2021/12/04 09:24:37;;;;;;;15.82;6.90;;;8.20;68.60;;;;;;6195398;28;20046;-78
2021/12/04 09:31:18;;;;;;;17.23;7.72;;;8.20;68.50;;;;;;6195697;28;20056;-77
2021/12/04 10:24:36;;;;;;;20.52;8.02;;;8.60;69.50;;;;;;6048111;29;20128;-78
2021/12/04 10:34:28;;;;;;;10.77;5.60;;;8.60;69.40;;;;;;6047703;29;20045;-77
2021/12/04 10:37:30;;;;;;;10.80;5.95;;;8.60;69.50;;;;;;6039004;29;20114;-77
2021/12/04 10:40:38;;;;;;;11.40;6.32;;;8.70;69.60;;;;;;6049609;29;20037;-77
2021/12/04 10:43:40;;;;;;;11.00;5.40;;;8.70;69.60;;;;;;6033154;29;20033;-77
2021/12/04 10:46:53;;;;;;;11.18;5.22;;;8.70;69.60;;;;;;6038043;29;20104;-77
2021/12/04 10:53:14;;;;;;;11.52;5.13;;;8.70;69.60;;;;;;6038065;29;20037;-78
2021/12/04 11:20:41;;;;;;;21.52;9.65;;;9.00;69.80;;;;;;6064055;29;20088;-78
2021/12/04 11:44:25;;;;;;;26.85;11.93;;;9.10;70.10;;;;;;6157972;28;20031;-77
2021/12/04 11:46:58;;;;;;;22.08;8.57;;;9.10;70.00;;;;;;6150492;28;20081;-77
2021/12/04 11:50:00;;;;;;;26.02;9.25;;;9.20;70.00;;;;;;6148140;28;20075;-78
2021/12/04 11:53:16;;;;;;;18.13;7.10;;;9.20;69.90;;;;;;6125001;28;20048;-77
2021/12/04 11:56:21;;;;;;;28.58;12.07;;;9.20;70.00;;;;;;6157441;28;20042;-78
2021/12/04 11:59:29;;;;;;;21.25;9.75;;;9.30;70.10;;;;;;6122151;28;20114;-75
2021/12/04 12:02:32;;;;;;;12.27;6.63;;;9.30;70.00;;;;;;6158035;28;20433;-73
2021/12/04 12:05:50;;;;;;;14.15;6.25;;;9.40;69.90;;;;;;6140447;28;20098;-74
2021/12/04 12:09:02;;;;;;;19.93;8.87;;;9.50;69.90;;;;;;6140704;28;20375;-74
2021/12/04 12:12:06;;;;;;;30.35;14.30;;;9.50;69.70;;;;;;6123048;28;20371;-75
2021/12/04 12:15:33;;;;;;;26.52;12.27;;;9.60;69.70;;;;;;6143695;28;20365;-77
2021/12/04 12:18:52;;;;;;;18.65;8.55;;;9.60;69.80;;;;;;6138012;28;20043;-78
2021/12/04 12:22:07;;;;;;;24.13;11.00;;;9.70;69.90;;;;;;6156173;28;20062;-77
2021/12/04 12:32:17;;;;;;;27.02;8.73;;;9.90;69.90;;;;;;6107107;28;20116;-76
2021/12/04 12:38:53;;;;;;;23.52;10.93;;;10.00;69.80;;;;;;6095270;28;20046;-76
2021/12/04 12:41:55;;;;;;;16.45;8.32;;;10.00;69.60;;;;;;6125845;28;20128;-75
2021/12/04 12:45:24;;;;;;;15.82;7.18;;;10.10;69.50;;;;;;6102397;28;20069;-75
2021/12/04 12:48:25;;;;;;;;;;;10.10;69.50;;;;;;6074650;28;20047;-76
2021/12/04 12:51:34;;;;;;;14.27;7.45;;;10.20;69.60;;;;;;6123707;28;20975;-74
2021/12/04 12:54:37;;;;;;;15.88;7.78;;;10.20;69.40;;;;;;6128671;28;23220;-76
2021/12/04 12:57:42;;;;;;;20.48;8.63;;;10.20;69.50;;;;;;6141423;28;20042;-76
2021/12/04 13:14:16;;;;;;;13.38;7.20;;;10.40;69.40;;;;;;6117538;28;20132;-74
2021/12/04 13:17:19;;;;;;;27.90;11.68;;;10.40;69.30;;;;;;6109109;28;23690;-75
2021/12/04 13:20:23;;;;;;;20.67;8.50;;;10.60;69.30;;;;;;6112860;28;20035;-75
2021/12/04 13:23:24;;;;;;;15.02;7.47;;;10.50;69.30;;;;;;6108991;28;20039;-74
2021/12/04 13:26:29;;;;;;;16.38;7.40;;;10.50;69.20;;;;;;6127977;28;20050;-78
2021/12/04 13:29:30;;;;;;;13.40;7.07;;;10.50;69.10;;;;;;6112657;28;20363;-73
2021/12/04 13:32:38;;;;;;;14.98;7.15;;;10.60;69.20;;;;;;6127479;28;20459;-73
2021/12/04 13:35:45;;;;;;;12.10;6.95;;;10.60;69.20;;;;;;6134164;28;20046;-73
2021/12/04 13:38:50;;;;;;;23.15;9.80;;;10.60;69.10;;;;;;6120073;28;20436;-73
2021/12/04 13:41:53;;;;;;;21.88;9.30;;;10.60;68.90;;;;;;6119825;28;20058;-73
2021/12/04 13:44:59;;;;;;;20.13;8.75;;;10.60;68.90;;;;;;6104508;28;20039;-73
2021/12/04 13:48:00;;;;;;;16.30;8.95;;;10.70;68.90;;;;;;6130444;28;20046;-71
2021/12/04 13:51:02;;;;;;;18.88;8.63;;;10.70;68.90;;;;;;6124277;28;20043;-74
2021/12/04 13:54:04;;;;;;;13.38;7.28;;;10.70;68.80;;;;;;6127997;28;20046;-73
2021/12/04 13:57:10;;;;;;;16.13;8.15;;;10.80;69.00;;;;;;6111649;28;20165;-73
2021/12/04 14:00:36;;;;;;;18.60;9.13;;;10.80;69.00;;;;;;6141938;28;21008;-73
2021/12/04 14:03:39;;;;;;;20.17;9.05;;;10.80;69.00;;;;;;6110483;28;20050;-74
2021/12/04 14:06:48;;;;;;;21.58;9.57;;;10.80;69.00;;;;;;6133271;28;20120;-73
2021/12/04 14:09:51;;;;;;;24.02;11.40;;;10.90;69.00;;;;;;6125977;28;20042;-73
2021/12/04 14:12:54;;;;;;;23.23;11.80;;;10.90;69.00;;;;;;6152230;28;20065;-72
2021/12/04 14:15:56;;;;;;;26.13;10.23;;;11.00;68.90;;;;;;6146409;28;20038;-73
2021/12/04 14:18:57;;;;;;;19.65;9.88;;;11.10;68.90;;;;;;6145293;28;20045;-73
2021/12/04 14:22:18;;;;;;;20.88;8.98;;;11.10;68.80;;;;;;6142205;28;20424;-74
2021/12/04 14:25:21;;;;;;;17.23;9.43;;;11.10;69.00;;;;;;6155379;28;20043;-73
2021/12/04 14:28:30;;;;;;;20.08;9.40;;;11.20;69.00;;;;;;6162663;28;20054;-71
2021/12/04 14:31:32;;;;;;;18.95;8.75;;;11.10;69.60;;;;;;6137330;28;20043;-73
2021/12/04 14:34:33;;;;;;;18.10;8.73;;;11.10;68.90;;;;;;6127192;28;20101;-72
2021/12/04 14:37:37;;;;;;;15.50;8.40;;;11.10;69.00;;;;;;6157576;28;20313;-74
2021/12/04 14:40:41;;;;;;;17.35;8.43;;;11.20;69.10;;;;;;6153312;28;20035;-74
2021/12/04 14:43:43;;;;;;;19.15;8.30;;;11.20;69.20;;;;;;6162043;28;20113;-73
2021/12/04 14:46:45;;;;;;;12.18;6.80;;;11.20;69.00;;;;;;6176414;28;20054;-73
2021/12/04 14:49:49;;;;;;;11.35;6.38;;;11.30;69.10;;;;;;6165352;28;20379;-72
2021/12/04 14:52:54;;;;;;;8.88;4.72;;;11.30;69.20;;;;;;6174371;28;20061;-74
2021/12/04 14:55:55;;;;;;;9.63;5.22;;;11.40;69.50;;;;;;6132358;28;20050;-74
2021/12/04 14:58:57;;;;;;;13.05;6.72;;;11.50;69.30;;;;;;6149742;28;20050;-73
2021/12/04 15:02:00;;;;;;;17.02;5.88;;;11.60;69.20;;;;;;6134864;28;20106;-74
2021/12/04 15:05:03;;;;;;;14.88;6.70;;;11.70;69.10;;;;;;6147659;28;20180;-73
2021/12/04 15:08:16;;;;;;;21.60;8.75;;;11.80;69.00;;;;;;6152484;28;20039;-73
2021/12/04 15:11:23;;;;;;;19.20;8.13;;;11.80;69.00;;;;;;6129919;28;20522;-74
2021/12/04 15:14:31;;;;;;;10.52;4.70;;;11.90;69.00;;;;;;6131416;28;20535;-73
2021/12/04 15:17:34;;;;;;;16.50;4.60;;;11.90;68.90;;;;;;6147374;28;20413;-74
2021/12/04 15:20:42;;;;;;;7.13;4.15;;;11.90;68.80;;;;;;6160185;28;20110;-73
2021/12/04 15:23:45;;;;;;;6.37;3.77;;;11.90;68.70;;;;;;6168533;28;20420;-75
2021/12/04 15:26:48;;;;;;;9.07;3.80;;;11.80;68.70;;;;;;6153994;28;20031;-74
2021/12/04 15:29:53;;;;;;;8.25;3.85;;;11.70;68.70;;;;;;6149224;28;20159;-73
2021/12/04 15:32:54;;;;;;;4.60;2.25;;;11.80;68.90;;;;;;6153404;28;20043;-73
2021/12/04 15:35:58;;;;;;;6.65;2.72;;;11.70;68.90;;;;;;6149271;28;20046;-74
2021/12/04 15:39:05;;;;;;;6.75;2.75;;;11.70;69.00;;;;;;6167076;28;20030;-74
2021/12/04 15:42:19;;;;;;;5.90;2.25;;;11.70;69.10;;;;;;6168828;28;20038;-74
2021/12/04 15:55:23;;;;;;;7.68;2.70;;;11.70;69.00;;;;;;6152023;28;21154;-73
2021/12/04 15:58:30;;;;;;;8.23;3.65;;;11.80;68.90;;;;;;6154300;28;20121;-73
2021/12/04 16:01:31;;;;;;;10.02;4.95;;;11.70;68.70;;;;;;6134688;28;20447;-75
2021/12/04 16:04:33;;;;;;;10.75;5.25;;;11.70;68.60;;;;;;6150957;28;20035;-75
2021/12/04 16:07:35;;;;;;;9.57;4.90;;;11.70;68.50;;;;;;6150522;28;20039;-72
2021/12/04 16:10:38;;;;;;;10.68;6.35;;;11.60;68.60;;;;;;6118393;28;20085;-73
2021/12/04 16:13:42;;;;;;;12.48;6.18;;;11.50;68.80;;;;;;6152231;28;20034;-73
2021/12/04 16:16:43;;;;;;;12.63;6.18;;;11.40;68.80;;;;;;6138157;28;20038;-74
2021/12/04 16:19:46;;;;;;;15.55;5.85;;;11.30;68.90;;;;;;6141376;28;20039;-74
2021/12/04 16:22:49;;;;;;;11.48;6.22;;;11.30;69.10;;;;;;6149599;28;20030;-74
2021/12/04 16:25:50;;;;;;;12.57;5.95;;;11.20;69.20;;;;;;6153790;28;20050;-74
2021/12/04 16:35:38;;;;;;;12.13;5.70;;;10.90;69.70;;;;;;6168669;28;20358;-74
2021/12/04 16:38:43;;;;;;;10.52;5.72;;;10.90;69.90;;;;;;6166740;28;20039;-74
2021/12/04 16:41:53;;;;;;;19.00;7.05;;;10.80;69.90;;;;;;6139125;28;20077;-75
2021/12/04 16:44:56;;;;;;;19.65;5.68;;;10.70;70.00;;;;;;6162910;28;20538;-74
2021/12/04 16:48:05;;;;;;;12.70;6.30;;;10.60;70.00;;;;;;6165410;28;20038;-74
2021/12/04 17:00:43;;;;;;;11.32;6.07;;;10.40;70.90;;;;;;6179499;28;20122;-70
2021/12/04 17:03:45;;;;;;;11.52;5.53;;;10.40;70.90;;;;;;6170559;28;20118;-73
2021/12/04 17:06:49;;;;;;;13.13;6.40;;;10.30;70.90;;;;;;6179526;28;20085;-75
2021/12/04 17:09:50;;;;;;;10.55;5.93;;;10.40;71.10;;;;;;6152867;28;20043;-76
2021/12/04 17:12:51;;;;;;;11.15;6.50;;;10.40;71.10;;;;;;6170672;28;20061;-77
2021/12/04 17:15:53;;;;;;;10.85;6.25;;;10.40;71.10;;;;;;6151682;28;20054;-77
2021/12/04 17:19:07;;;;;;;11.65;6.25;;;10.50;71.30;;;;;;6166800;28;20049;-73
2021/12/04 17:22:09;;;;;;;16.25;7.43;;;10.50;71.10;;;;;;6172751;28;20129;-79
2021/12/04 17:25:10;;;;;;;17.45;7.70;;;10.60;71.10;;;;;;6192114;28;20484;-75
2021/12/04 17:28:13;;;;;;;24.20;10.13;;;10.60;71.00;;;;;;6173743;28;20452;-73
2021/12/04 17:31:16;;;;;;;47.10;17.10;;;10.70;71.10;;;;;;6144049;28;20053;-74
2021/12/04 17:34:18;;;;;;;23.67;11.40;;;10.70;71.00;;;;;;6163825;28;20042;-81
2021/12/04 17:37:20;;;;;;;22.70;10.05;;;10.70;71.10;;;;;;6187953;28;20034;-73
2021/12/04 17:40:21;;;;;;;14.52;7.70;;;10.80;71.10;;;;;;6181769;28;20038;-79
2021/12/04 17:43:22;;;;;;;15.38;8.57;;;10.80;71.10;;;;;;6135054;28;20127;-78
2021/12/04 17:46:24;;;;;;;19.02;10.43;;;10.90;71.00;;;;;;6173201;28;20462;-79
2021/12/04 17:49:28;;;;;;;18.42;9.07;;;10.90;71.00;;;;;;6187258;28;20031;-78
2021/12/04 17:52:29;;;;;;;18.77;7.28;;;11.00;71.00;;;;;;6158510;28;20058;-79
2021/12/04 17:55:31;;;;;;;21.50;7.85;;;11.00;70.80;;;;;;6139589;28;20058;-77
2021/12/04 17:58:33;;;;;;;14.20;6.63;;;11.00;70.70;;;;;;6173748;28;20738;-76
2021/12/04 18:01:46;;;;;;;13.63;5.97;;;11.00;70.80;;;;;;6159111;28;20052;-78
2021/12/04 18:04:53;;;;;;;9.73;5.35;;;11.00;70.80;;;;;;6159842;28;20049;-78
2021/12/04 18:07:59;;;;;;;7.93;4.85;;;11.00;71.00;;;;;;6189747;28;20516;-78
2021/12/04 18:11:01;;;;;;;6.50;2.65;;;10.90;71.30;;;;;;6137209;28;20065;-80
2021/12/04 18:14:08;;;;;;;4.32;2.20;;;11.00;71.50;;;;;;6158539;28;23178;-78
2021/12/04 18:17:09;;;;;;;3.33;1.13;;;10.90;71.60;;;;;;6143400;28;20036;-78
2021/12/04 18:20:11;;;;;;;15.52;3.58;;;11.00;71.70;;;;;;6169946;28;20483;-79
2021/12/04 18:23:13;;;;;;;4.28;2.03;;;11.10;71.40;;;;;;6179040;28;20039;-78
2021/12/04 18:26:14;;;;;;;2.63;1.33;;;11.20;71.00;;;;;;6178514;28;20042;-83
2021/12/04 18:29:16;;;;;;;1.98;1.35;;;11.20;70.20;;;;;;6181832;28;20468;-80
2021/12/04 18:32:17;;;;;;;5.70;1.58;;;11.20;69.60;;;;;;6156163;28;20039;-77
2021/12/04 18:35:20;;;;;;;3.15;1.00;;;11.20;69.00;;;;;;6179299;28;20070;-79
2021/12/04 18:38:21;;;;;;;2.40;1.63;;;11.20;68.50;;;;;;6182290;28;20450;-77
2021/12/04 18:41:23;;;;;;;2.17;0.40;;;11.20;68.10;;;;;;6166348;28;20092;-78
2021/12/04 18:44:24;;;;;;;1.75;1.17;;;11.10;67.00;;;;;;6182354;28;20062;-78
2021/12/04 18:47:25;;;;;;;0.88;0.70;;;11.00;66.80;;;;;;6183466;28;20050;-78
2021/12/04 18:50:33;;;;;;;0.32;0.32;;;10.70;66.10;;;;;;6178100;28;20039;-79
2021/12/04 18:53:34;;;;;;;1.08;0.47;;;10.60;66.30;;;;;;6186887;28;20051;-78
2021/12/04 18:56:36;;;;;;;0.28;0.20;;;10.50;66.90;;;;;;6165052;28;20069;-78
2021/12/04 18:59:37;;;;;;;0.88;0.80;;;10.40;67.10;;;;;;6141824;28;20087;-79
2021/12/04 19:02:42;;;;;;;1.00;0.70;;;10.30;67.00;;;;;;6162889;28;20528;-80
2021/12/04 19:05:46;;;;;;;0.43;0.35;;;10.20;67.40;;;;;;6168742;28;20030;-80
2021/12/04 19:08:47;;;;;;;0.98;0.65;;;10.20;67.50;;;;;;6153805;28;20034;-80
2021/12/04 19:11:49;;;;;;;2.55;0.65;;;10.20;67.40;;;;;;6165215;28;20047;-79
2021/12/04 19:14:50;;;;;;;3.28;1.17;;;10.20;67.30;;;;;;6172274;28;20357;-79
2021/12/04 19:17:55;;;;;;;2.53;0.60;;;10.20;66.70;;;;;;6136137;28;20054;-81
2021/12/04 19:20:57;;;;;;;7.05;1.00;;;10.30;66.50;;;;;;6150645;28;20039;-79
2021/12/04 19:23:59;;;;;;;0.32;0.32;;;10.50;65.60;;;;;;6169624;28;20460;-79
2021/12/04 19:27:03;;;;;;;5.80;0.50;;;10.60;64.90;;;;;;6137483;28;20085;-78
2021/12/04 19:30:11;;;;;;;5.80;0.80;;;10.80;64.60;;;;;;6152445;28;20383;-80
2021/12/04 19:36:46;;;;;;;1.33;0.82;;;11.00;63.80;;;;;;6173475;28;20121;-79
2021/12/04 19:56:38;;;;;;;1.50;0.85;;;11.50;61.80;;;;;;6193715;28;20038;-79
2021/12/04 19:59:40;;;;;;;14.43;4.40;;;11.50;61.40;;;;;;6191354;28;20126;-78
2021/12/04 20:09:10;;;;;;;8.90;2.00;;;11.70;60.30;;;;;;6196039;28;20085;-80
2021/12/04 20:15:37;;;;;;;2.83;1.63;;;11.70;59.90;;;;;;6176020;28;20113;-78